sensor_id;sensor_type;location;lat;lon;timestamp;pressure;altitude;pressure_sealevel;temperature;humidity
48624;BME280;34422;45.802;16.114;2023-04-01T00:01:26;99135.78;;;10.50;100.00
48624;BME280;34422;45.802;16.114;2023-04-01T00:03:53;99132.22;;;10.61;100.00
48624;BME280;34422;45.802;16.114;2023-04-01T00:06:20;99126.91;;;10.66;100.00
48624;BME280;34422;45.802;16.114;2023-04-01T00:08:47;99109.06;;;10.65;100.00
48624;BME280;34422;45.802;16.114;2023-04-01T00:11:15;99112.03;;;10.52;100.00
48624;BME280;34422;45.802;16.114;2023-04-01T00:13:42;99113.19;;;10.56;100.00
48624;BME280;34422;45.802;16.114;2023-04-01T00:16:10;99103.47;;;10.43;100.00
48624;BME280;34422;45.802;16.114;2023-04-01T00:18:38;99101.22;;;10.40;100.00
48624;BME280;34422;45.802;16.114;2023-04-01T00:21:05;99105.81;;;10.40;100.00
48624;BME280;34422;45.802;16.114;2023-04-01T00:23:31;99113.09;;;10.39;100.00
48624;BME280;34422;45.802;16.114;2023-04-01T00:26:03;99118.66;;;10.32;100.00
48624;BME280;34422;45.802;16.114;2023-04-01T00:28:29;99107.97;;;10.26;100.00
48624;BME280;34422;45.802;16.114;2023-04-01T00:30:56;99107.16;;;10.25;100.00
48624;BME280;34422;45.802;16.114;2023-04-01T00:33:23;99103.38;;;10.26;100.00
48624;BME280;34422;45.802;16.114;2023-04-01T00:35:50;99115.53;;;10.24;100.00
48624;BME280;34422;45.802;16.114;2023-04-01T00:38:16;99124.09;;;10.21;100.00
48624;BME280;34422;45.802;16.114;2023-04-01T00:40:45;99129.75;;;10.19;100.00
48624;BME280;34422;45.802;16.114;2023-04-01T00:43:19;99116.56;;;10.11;100.00
48624;BME280;34422;45.802;16.114;2023-04-01T00:45:48;99120.19;;;10.17;100.00
48624;BME280;34422;45.802;16.114;2023-04-01T00:48:30;99120.34;;;10.10;100.00
48624;BME280;34422;45.802;16.114;2023-04-01T00:51:01;99114.94;;;10.10;100.00
48624;BME280;34422;45.802;16.114;2023-04-01T00:53:30;99120.59;;;9.97;100.00
48624;BME280;34422;45.802;16.114;2023-04-01T00:56:19;99112.56;;;10.02;100.00
48624;BME280;34422;45.802;16.114;2023-04-01T00:58:52;99112.56;;;10.02;100.00
48624;BME280;34422;45.802;16.114;2023-04-01T01:01:22;99099.66;;;10.04;100.00
48624;BME280;34422;45.802;16.114;2023-04-01T01:03:50;99092.75;;;9.96;100.00
48624;BME280;34422;45.802;16.114;2023-04-01T01:12:00;99077.09;;;9.87;100.00
48624;BME280;34422;45.802;16.114;2023-04-01T01:17:22;99061.13;;;9.97;100.00
48624;BME280;34422;45.802;16.114;2023-04-01T01:36:42;99030.66;;;10.02;100.00
48624;BME280;34422;45.802;16.114;2023-04-01T01:39:12;99023.38;;;10.02;100.00
48624;BME280;34422;45.802;16.114;2023-04-01T01:41:41;99016.69;;;10.05;100.00
48624;BME280;34422;45.802;16.114;2023-04-01T01:44:12;99011.31;;;9.93;100.00
48624;BME280;34422;45.802;16.114;2023-04-01T01:46:41;99003.09;;;9.88;100.00
48624;BME280;34422;45.802;16.114;2023-04-01T01:49:10;98991.38;;;9.71;100.00
48624;BME280;34422;45.802;16.114;2023-04-01T01:51:38;98980.50;;;9.66;100.00
48624;BME280;34422;45.802;16.114;2023-04-01T01:54:06;98975.44;;;9.69;100.00
48624;BME280;34422;45.802;16.114;2023-04-01T01:56:34;98958.50;;;9.74;100.00
48624;BME280;34422;45.802;16.114;2023-04-01T01:59:05;98960.50;;;9.78;100.00
48624;BME280;34422;45.802;16.114;2023-04-01T02:01:39;98949.22;;;9.81;100.00
48624;BME280;34422;45.802;16.114;2023-04-01T02:04:09;98932.84;;;9.88;100.00
48624;BME280;34422;45.802;16.114;2023-04-01T02:06:38;98930.91;;;9.72;100.00
48624;BME280;34422;45.802;16.114;2023-04-01T02:09:08;98923.06;;;9.58;100.00
48624;BME280;34422;45.802;16.114;2023-04-01T02:11:46;98931.94;;;9.42;100.00
48624;BME280;34422;45.802;16.114;2023-04-01T02:16:53;98944.16;;;9.21;100.00
48624;BME280;34422;45.802;16.114;2023-04-01T02:19:29;98946.50;;;9.18;100.00
48624;BME280;34422;45.802;16.114;2023-04-01T02:22:00;98933.81;;;9.30;100.00
48624;BME280;34422;45.802;16.114;2023-04-01T02:24:30;98935.34;;;9.26;100.00
48624;BME280;34422;45.802;16.114;2023-04-01T02:26:58;98936.19;;;9.26;100.00
48624;BME280;34422;45.802;16.114;2023-04-01T02:29:25;98938.53;;;9.23;100.00
48624;BME280;34422;45.802;16.114;2023-04-01T02:31:53;98942.41;;;9.27;100.00
48624;BME280;34422;45.802;16.114;2023-04-01T02:34:21;98943.66;;;9.36;100.00
48624;BME280;34422;45.802;16.114;2023-04-01T02:36:49;98940.50;;;9.39;100.00
48624;BME280;34422;45.802;16.114;2023-04-01T02:39:17;98939.06;;;9.48;100.00
48624;BME280;34422;45.802;16.114;2023-04-01T02:41:45;98938.00;;;9.49;100.00
48624;BME280;34422;45.802;16.114;2023-04-01T02:44:15;98938.38;;;9.41;100.00
48624;BME280;34422;45.802;16.114;2023-04-01T02:46:42;98937.34;;;9.42;100.00
48624;BME280;34422;45.802;16.114;2023-04-01T02:49:09;98932.50;;;9.44;100.00
48624;BME280;34422;45.802;16.114;2023-04-01T02:51:36;98924.50;;;9.49;100.00
48624;BME280;34422;45.802;16.114;2023-04-01T02:54:02;98932.22;;;9.57;100.00
48624;BME280;34422;45.802;16.114;2023-04-01T02:56:29;98934.38;;;9.55;100.00
48624;BME280;34422;45.802;16.114;2023-04-01T02:58:56;98954.59;;;9.41;100.00
48624;BME280;34422;45.802;16.114;2023-04-01T03:01:23;98948.69;;;9.44;100.00
48624;BME280;34422;45.802;16.114;2023-04-01T03:03:50;98939.78;;;9.32;100.00
48624;BME280;34422;45.802;16.114;2023-04-01T03:06:17;98937.09;;;9.32;100.00
48624;BME280;34422;45.802;16.114;2023-04-01T03:08:44;98941.91;;;9.30;100.00
48624;BME280;34422;45.802;16.114;2023-04-01T03:11:11;98951.66;;;9.31;100.00
48624;BME280;34422;45.802;16.114;2023-04-01T03:13:38;98948.47;;;9.34;100.00
48624;BME280;34422;45.802;16.114;2023-04-01T03:16:05;98944.72;;;9.35;100.00
48624;BME280;34422;45.802;16.114;2023-04-01T03:18:32;98946.38;;;9.36;100.00
48624;BME280;34422;45.802;16.114;2023-04-01T03:21:20;98949.19;;;9.41;100.00
48624;BME280;34422;45.802;16.114;2023-04-01T03:23:47;98954.09;;;9.44;100.00
48624;BME280;34422;45.802;16.114;2023-04-01T03:26:14;98950.84;;;9.42;100.00
48624;BME280;34422;45.802;16.114;2023-04-01T03:28:42;98954.59;;;9.41;100.00
48624;BME280;34422;45.802;16.114;2023-04-01T03:31:09;98951.88;;;9.41;100.00
48624;BME280;34422;45.802;16.114;2023-04-01T03:33:36;98957.63;;;9.33;100.00
48624;BME280;34422;45.802;16.114;2023-04-01T03:36:03;98962.22;;;9.33;100.00
48624;BME280;34422;45.802;16.114;2023-04-01T03:38:33;98965.50;;;9.23;100.00
48624;BME280;34422;45.802;16.114;2023-04-01T03:41:01;98976.91;;;9.25;100.00
48624;BME280;34422;45.802;16.114;2023-04-01T03:43:28;98976.19;;;9.18;100.00
48624;BME280;34422;45.802;16.114;2023-04-01T03:45:55;98980.06;;;9.22;100.00
48624;BME280;34422;45.802;16.114;2023-04-01T03:48:25;98987.47;;;9.15;100.00
48624;BME280;34422;45.802;16.114;2023-04-01T03:50:52;98982.41;;;9.18;100.00
48624;BME280;34422;45.802;16.114;2023-04-01T03:53:18;98981.47;;;9.13;100.00
48624;BME280;34422;45.802;16.114;2023-04-01T03:55:46;98979.25;;;9.10;100.00
48624;BME280;34422;45.802;16.114;2023-04-01T03:58:13;98986.06;;;9.12;100.00
48624;BME280;34422;45.802;16.114;2023-04-01T04:00:40;98981.25;;;9.14;100.00
48624;BME280;34422;45.802;16.114;2023-04-01T04:03:07;98991.22;;;9.14;100.00
48624;BME280;34422;45.802;16.114;2023-04-01T04:05:33;99002.81;;;9.03;100.00
48624;BME280;34422;45.802;16.114;2023-04-01T04:08:00;99003.06;;;9.01;100.00
48624;BME280;34422;45.802;16.114;2023-04-01T04:10:27;98998.00;;;9.05;100.00
48624;BME280;34422;45.802;16.114;2023-04-01T04:12:56;99013.03;;;9.01;100.00
48624;BME280;34422;45.802;16.114;2023-04-01T04:15:23;99014.31;;;8.98;100.00
48624;BME280;34422;45.802;16.114;2023-04-01T04:17:49;99016.88;;;8.93;100.00
48624;BME280;34422;45.802;16.114;2023-04-01T04:20:16;99017.25;;;8.97;100.00
48624;BME280;34422;45.802;16.114;2023-04-01T04:22:44;99018.16;;;8.90;100.00
48624;BME280;34422;45.802;16.114;2023-04-01T04:25:10;99027.91;;;8.91;100.00
48624;BME280;34422;45.802;16.114;2023-04-01T04:27:37;99031.03;;;8.88;100.00
48624;BME280;34422;45.802;16.114;2023-04-01T04:30:06;99031.53;;;8.85;100.00
48624;BME280;34422;45.802;16.114;2023-04-01T04:32:33;99035.06;;;8.86;100.00
48624;BME280;34422;45.802;16.114;2023-04-01T04:35:00;99047.13;;;8.83;100.00
48624;BME280;34422;45.802;16.114;2023-04-01T04:37:27;99039.59;;;8.74;100.00
48624;BME280;34422;45.802;16.114;2023-04-01T04:39:53;99042.63;;;8.77;100.00
48624;BME280;34422;45.802;16.114;2023-04-01T04:42:20;99041.06;;;8.58;100.00
48624;BME280;34422;45.802;16.114;2023-04-01T04:44:47;99046.72;;;8.68;100.00
48624;BME280;34422;45.802;16.114;2023-04-01T04:47:14;99049.75;;;8.60;100.00
48624;BME280;34422;45.802;16.114;2023-04-01T04:49:41;99054.19;;;8.54;100.00
48624;BME280;34422;45.802;16.114;2023-04-01T04:52:08;99053.50;;;8.59;100.00
48624;BME280;34422;45.802;16.114;2023-04-01T04:54:34;99055.47;;;8.52;100.00
48624;BME280;34422;45.802;16.114;2023-04-01T04:57:01;99058.16;;;8.52;100.00
48624;BME280;34422;45.802;16.114;2023-04-01T04:59:28;99057.56;;;8.50;100.00
48624;BME280;34422;45.802;16.114;2023-04-01T05:01:55;99053.13;;;8.55;100.00
48624;BME280;34422;45.802;16.114;2023-04-01T05:04:21;99066.16;;;8.59;100.00
48624;BME280;34422;45.802;16.114;2023-04-01T05:06:48;99069.63;;;8.47;100.00
48624;BME280;34422;45.802;16.114;2023-04-01T05:09:15;99062.81;;;8.45;100.00
48624;BME280;34422;45.802;16.114;2023-04-01T05:11:41;99056.50;;;8.51;100.00
48624;BME280;34422;45.802;16.114;2023-04-01T05:14:15;99061.53;;;8.47;100.00
48624;BME280;34422;45.802;16.114;2023-04-01T05:16:42;99054.03;;;8.49;100.00
48624;BME280;34422;45.802;16.114;2023-04-01T05:19:09;99056.97;;;8.48;100.00
48624;BME280;34422;45.802;16.114;2023-04-01T05:21:36;99043.19;;;8.56;100.00
48624;BME280;34422;45.802;16.114;2023-04-01T05:24:03;99046.91;;;8.55;100.00
48624;BME280;34422;45.802;16.114;2023-04-01T05:26:29;99041.97;;;8.52;100.00
48624;BME280;34422;45.802;16.114;2023-04-01T05:28:57;99028.72;;;8.50;100.00
48624;BME280;34422;45.802;16.114;2023-04-01T05:31:23;99025.81;;;8.52;100.00
48624;BME280;34422;45.802;16.114;2023-04-01T05:33:50;99023.91;;;8.41;100.00
48624;BME280;34422;45.802;16.114;2023-04-01T05:36:17;99031.66;;;8.49;100.00
48624;BME280;34422;45.802;16.114;2023-04-01T05:38:43;99030.78;;;8.67;100.00
48624;BME280;34422;45.802;16.114;2023-04-01T05:41:12;99033.59;;;8.60;100.00
48624;BME280;34422;45.802;16.114;2023-04-01T05:43:40;99037.19;;;8.54;100.00
48624;BME280;34422;45.802;16.114;2023-04-01T05:46:07;99033.22;;;8.57;100.00
48624;BME280;34422;45.802;16.114;2023-04-01T05:48:34;99039.25;;;8.70;100.00
48624;BME280;34422;45.802;16.114;2023-04-01T05:51:02;99037.97;;;8.73;100.00
48624;BME280;34422;45.802;16.114;2023-04-01T05:53:29;99050.28;;;8.80;100.00
48624;BME280;34422;45.802;16.114;2023-04-01T05:55:56;99060.03;;;8.93;100.00
48624;BME280;34422;45.802;16.114;2023-04-01T05:58:22;99055.84;;;8.97;100.00
48624;BME280;34422;45.802;16.114;2023-04-01T06:00:49;99061.47;;;8.96;100.00
48624;BME280;34422;45.802;16.114;2023-04-01T06:03:16;99065.56;;;8.86;100.00
48624;BME280;34422;45.802;16.114;2023-04-01T06:05:43;99069.63;;;8.89;100.00
48624;BME280;34422;45.802;16.114;2023-04-01T06:08:16;99066.59;;;8.85;100.00
48624;BME280;34422;45.802;16.114;2023-04-01T06:14:30;99079.31;;;9.08;100.00
48624;BME280;34422;45.802;16.114;2023-04-01T06:24:52;99104.50;;;9.55;100.00
48624;BME280;34422;45.802;16.114;2023-04-01T06:38:53;99105.00;;;10.39;100.00
48624;BME280;34422;45.802;16.114;2023-04-01T06:46:48;99114.63;;;10.47;100.00
48624;BME280;34422;45.802;16.114;2023-04-01T06:58:56;99135.44;;;10.46;100.00
48624;BME280;34422;45.802;16.114;2023-04-01T07:01:42;99139.91;;;10.41;100.00
48624;BME280;34422;45.802;16.114;2023-04-01T07:04:14;99142.53;;;10.76;100.00
48624;BME280;34422;45.802;16.114;2023-04-01T07:06:48;99132.66;;;10.98;100.00
48624;BME280;34422;45.802;16.114;2023-04-01T07:09:27;99136.38;;;10.80;100.00
48624;BME280;34422;45.802;16.114;2023-04-01T07:12:01;99147.13;;;11.03;100.00
48624;BME280;34422;45.802;16.114;2023-04-01T07:14:32;99144.47;;;11.09;100.00
48624;BME280;34422;45.802;16.114;2023-04-01T07:20:05;99139.75;;;11.16;100.00
48624;BME280;34422;45.802;16.114;2023-04-01T07:22:40;99138.97;;;11.65;100.00
48624;BME280;34422;45.802;16.114;2023-04-01T07:25:13;99148.00;;;11.54;100.00
48624;BME280;34422;45.802;16.114;2023-04-01T07:27:42;99137.47;;;11.41;100.00
48624;BME280;34422;45.802;16.114;2023-04-01T07:30:21;99141.75;;;11.54;100.00
48624;BME280;34422;45.802;16.114;2023-04-01T07:33:07;99145.88;;;11.90;100.00
48624;BME280;34422;45.802;16.114;2023-04-01T07:35:53;99144.97;;;11.67;100.00
48624;BME280;34422;45.802;16.114;2023-04-01T07:38:48;99139.97;;;11.59;100.00
48624;BME280;34422;45.802;16.114;2023-04-01T07:44:29;99143.44;;;11.88;100.00
48624;BME280;34422;45.802;16.114;2023-04-01T07:47:19;99144.66;;;11.81;100.00
48624;BME280;34422;45.802;16.114;2023-04-01T07:52:54;99145.50;;;12.03;100.00
48624;BME280;34422;45.802;16.114;2023-04-01T07:58:14;99160.78;;;12.09;100.00
48624;BME280;34422;45.802;16.114;2023-04-01T08:00:56;99157.69;;;12.82;100.00
48624;BME280;34422;45.802;16.114;2023-04-01T08:03:43;99161.91;;;12.95;100.00
48624;BME280;34422;45.802;16.114;2023-04-01T08:06:19;99152.91;;;13.80;100.00
48624;BME280;34422;45.802;16.114;2023-04-01T08:08:59;99145.47;;;14.03;100.00
48624;BME280;34422;45.802;16.114;2023-04-01T08:11:46;99154.31;;;14.72;100.00
48624;BME280;34422;45.802;16.114;2023-04-01T08:14:30;99163.03;;;14.79;100.00
48624;BME280;34422;45.802;16.114;2023-04-01T08:22:33;99158.75;;;15.04;100.00
48624;BME280;34422;45.802;16.114;2023-04-01T08:25:04;99143.66;;;14.61;100.00
48624;BME280;34422;45.802;16.114;2023-04-01T08:27:37;99152.53;;;15.34;100.00
48624;BME280;34422;45.802;16.114;2023-04-01T08:30:19;99151.78;;;15.84;100.00
48624;BME280;34422;45.802;16.114;2023-04-01T08:33:21;99153.00;;;16.62;100.00
48624;BME280;34422;45.802;16.114;2023-04-01T08:38:40;99160.09;;;16.63;100.00
48624;BME280;34422;45.802;16.114;2023-04-01T08:58:04;99165.19;;;17.34;100.00
48624;BME280;34422;45.802;16.114;2023-04-01T09:00:48;99167.31;;;16.98;100.00
48624;BME280;34422;45.802;16.114;2023-04-01T09:06:29;99173.41;;;17.73;100.00
48624;BME280;34422;45.802;16.114;2023-04-01T09:12:11;99160.47;;;17.01;91.12
48624;BME280;34422;45.802;16.114;2023-04-01T09:15:12;99160.66;;;17.20;91.57
48624;BME280;34422;45.802;16.114;2023-04-01T09:29:59;99174.69;;;15.98;100.00
48624;BME280;34422;45.802;16.114;2023-04-01T09:32:58;99181.50;;;15.60;100.00
48624;BME280;34422;45.802;16.114;2023-04-01T09:38:57;99176.59;;;15.87;98.71
48624;BME280;34422;45.802;16.114;2023-04-01T09:41:45;99168.94;;;16.10;100.00
48624;BME280;34422;45.802;16.114;2023-04-01T09:44:34;99175.50;;;16.09;99.34
48624;BME280;34422;45.802;16.114;2023-04-01T09:56:03;99165.03;;;16.46;100.00
48624;BME280;34422;45.802;16.114;2023-04-01T10:01:42;99160.19;;;16.23;100.00
48624;BME280;34422;45.802;16.114;2023-04-01T10:06:58;99165.97;;;15.91;90.33
48624;BME280;34422;45.802;16.114;2023-04-01T10:09:45;99160.69;;;16.35;89.91
48624;BME280;34422;45.802;16.114;2023-04-01T10:12:45;99163.94;;;16.52;87.59
48624;BME280;34422;45.802;16.114;2023-04-01T10:32:57;99151.88;;;16.58;81.99
48624;BME280;34422;45.802;16.114;2023-04-01T10:38:22;99152.53;;;16.25;85.46
48624;BME280;34422;45.802;16.114;2023-04-01T10:52:57;99147.28;;;16.49;79.68
48624;BME280;34422;45.802;16.114;2023-04-01T11:15:34;99124.69;;;17.36;72.92
48624;BME280;34422;45.802;16.114;2023-04-01T11:26:41;99126.22;;;17.19;71.45
48624;BME280;34422;45.802;16.114;2023-04-01T11:29:33;99118.91;;;17.43;72.82
48624;BME280;34422;45.802;16.114;2023-04-01T11:43:28;99113.81;;;17.70;64.81
48624;BME280;34422;45.802;16.114;2023-04-01T11:46:59;99118.13;;;17.77;63.07
48624;BME280;34422;45.802;16.114;2023-04-01T11:49:29;99108.13;;;17.57;64.52
48624;BME280;34422;45.802;16.114;2023-04-01T12:03:37;99098.09;;;18.10;59.16
48624;BME280;34422;45.802;16.114;2023-04-01T12:09:17;99065.69;;;18.41;58.92
48624;BME280;34422;45.802;16.114;2023-04-01T12:14:44;99066.66;;;18.50;54.07
48624;BME280;34422;45.802;16.114;2023-04-01T12:19:56;99061.66;;;18.57;49.11
48624;BME280;34422;45.802;16.114;2023-04-01T12:22:43;99057.47;;;18.65;50.59
48624;BME280;34422;45.802;16.114;2023-04-01T12:28:47;99054.44;;;18.66;51.35
48624;BME280;34422;45.802;16.114;2023-04-01T12:31:38;99056.94;;;18.63;49.47
48624;BME280;34422;45.802;16.114;2023-04-01T12:39:33;99049.63;;;18.96;46.89
48624;BME280;34422;45.802;16.114;2023-04-01T12:50:51;99041.41;;;18.58;49.67
48624;BME280;34422;45.802;16.114;2023-04-01T12:56:14;99060.13;;;18.89;48.90
48624;BME280;34422;45.802;16.114;2023-04-01T12:59:50;99049.41;;;19.11;49.33
48624;BME280;34422;45.802;16.114;2023-04-01T13:04:33;99048.06;;;19.41;48.65
48624;BME280;34422;45.802;16.114;2023-04-01T13:12:45;99050.00;;;19.08;49.31
48624;BME280;34422;45.802;16.114;2023-04-01T13:18:14;99048.75;;;18.81;49.85
48624;BME280;34422;45.802;16.114;2023-04-01T13:44:20;99030.28;;;18.68;51.09
48624;BME280;34422;45.802;16.114;2023-04-01T13:47:21;99034.78;;;18.59;50.60
48624;BME280;34422;45.802;16.114;2023-04-01T13:58:07;99027.16;;;18.32;50.97
48624;BME280;34422;45.802;16.114;2023-04-01T14:06:44;99027.28;;;18.03;51.75
48624;BME280;34422;45.802;16.114;2023-04-01T14:12:15;99017.66;;;17.82;53.23
48624;BME280;34422;45.802;16.114;2023-04-01T14:17:31;99016.13;;;17.71;54.29
48624;BME280;34422;45.802;16.114;2023-04-01T14:20:28;99013.75;;;17.88;53.88
48624;BME280;34422;45.802;16.114;2023-04-01T14:32:01;99019.56;;;18.48;50.74
48624;BME280;34422;45.802;16.114;2023-04-01T14:34:45;99023.66;;;18.51;50.30
48624;BME280;34422;45.802;16.114;2023-04-01T14:37:47;99019.13;;;18.41;50.57
48624;BME280;34422;45.802;16.114;2023-04-01T14:46:07;99036.78;;;18.72;49.21
48624;BME280;34422;45.802;16.114;2023-04-01T14:48:48;99029.03;;;18.37;47.00
48624;BME280;34422;45.802;16.114;2023-04-01T14:51:22;99029.00;;;18.61;48.63
48624;BME280;34422;45.802;16.114;2023-04-01T14:56:42;99040.66;;;18.71;46.45
48624;BME280;34422;45.802;16.114;2023-04-01T15:01:59;99040.91;;;18.51;46.87
48624;BME280;34422;45.802;16.114;2023-04-01T15:10:04;99029.22;;;18.22;47.15
48624;BME280;34422;45.802;16.114;2023-04-01T15:20:25;99034.78;;;17.64;51.60
48624;BME280;34422;45.802;16.114;2023-04-01T15:29:01;99028.47;;;17.92;52.72
48624;BME280;34422;45.802;16.114;2023-04-01T15:31:54;99035.53;;;17.98;53.11
48624;BME280;34422;45.802;16.114;2023-04-01T15:37:35;99037.63;;;18.06;52.86
48624;BME280;34422;45.802;16.114;2023-04-01T15:40:24;99046.53;;;17.64;57.32
48624;BME280;34422;45.802;16.114;2023-04-01T15:45:58;99052.06;;;17.25;60.16
48624;BME280;34422;45.802;16.114;2023-04-01T15:48:50;99055.00;;;17.00;60.39
48624;BME280;34422;45.802;16.114;2023-04-01T15:51:43;99065.25;;;16.79;63.22
48624;BME280;34422;45.802;16.114;2023-04-01T15:54:37;99056.81;;;16.70;68.60
48624;BME280;34422;45.802;16.114;2023-04-01T16:13:42;99077.03;;;15.34;75.48
48624;BME280;34422;45.802;16.114;2023-04-01T16:21:59;99094.13;;;14.74;87.89
48624;BME280;34422;45.802;16.114;2023-04-01T16:29:53;99094.69;;;14.81;85.96
48624;BME280;34422;45.802;16.114;2023-04-01T16:37:51;99091.41;;;14.69;84.84
48624;BME280;34422;45.802;16.114;2023-04-01T16:40:40;99099.28;;;14.70;89.29
48624;BME280;34422;45.802;16.114;2023-04-01T16:45:40;99085.56;;;14.40;91.46
48624;BME280;34422;45.802;16.114;2023-04-01T16:48:15;99073.97;;;14.07;100.00
48624;BME280;34422;45.802;16.114;2023-04-01T16:58:35;99090.47;;;13.96;100.00
48624;BME280;34422;45.802;16.114;2023-04-01T17:01:06;99092.69;;;13.94;100.00
48624;BME280;34422;45.802;16.114;2023-04-01T17:03:43;99091.50;;;13.84;100.00
48624;BME280;34422;45.802;16.114;2023-04-01T17:11:39;99101.50;;;13.37;100.00
48624;BME280;34422;45.802;16.114;2023-04-01T17:17:05;99109.78;;;13.52;100.00
48624;BME280;34422;45.802;16.114;2023-04-01T17:31:05;99130.69;;;13.20;100.00
48624;BME280;34422;45.802;16.114;2023-04-01T17:41:50;99129.03;;;13.19;99.09
48624;BME280;34422;45.802;16.114;2023-04-01T17:47:49;99130.63;;;13.14;98.10
48624;BME280;34422;45.802;16.114;2023-04-01T17:50:28;99141.41;;;13.09;97.96
48624;BME280;34422;45.802;16.114;2023-04-01T17:58:50;99149.13;;;13.18;98.09
48624;BME280;34422;45.802;16.114;2023-04-01T18:04:23;99151.75;;;13.12;100.00
48624;BME280;34422;45.802;16.114;2023-04-01T18:07:01;99172.66;;;13.12;100.00
48624;BME280;34422;45.802;16.114;2023-04-01T18:15:39;99178.38;;;12.89;100.00
48624;BME280;34422;45.802;16.114;2023-04-01T18:18:33;99193.16;;;12.76;100.00
48624;BME280;34422;45.802;16.114;2023-04-01T18:21:27;99192.00;;;12.72;100.00
48624;BME280;34422;45.802;16.114;2023-04-01T18:24:02;99201.75;;;12.68;100.00
48624;BME280;34422;45.802;16.114;2023-04-01T18:26:38;99197.91;;;12.64;100.00
48624;BME280;34422;45.802;16.114;2023-04-01T18:32:15;99199.91;;;12.73;100.00
48624;BME280;34422;45.802;16.114;2023-04-01T18:35:14;99202.88;;;12.72;100.00
48624;BME280;34422;45.802;16.114;2023-04-01T18:37:50;99201.75;;;12.68;100.00
48624;BME280;34422;45.802;16.114;2023-04-01T18:43:56;99207.03;;;12.58;100.00
48624;BME280;34422;45.802;16.114;2023-04-01T18:46:39;99214.75;;;12.66;100.00
48624;BME280;34422;45.802;16.114;2023-04-01T18:49:15;99220.19;;;12.66;100.00
48624;BME280;34422;45.802;16.114;2023-04-01T18:51:50;99225.13;;;12.69;100.00
48624;BME280;34422;45.802;16.114;2023-04-01T18:54:32;99227.75;;;12.64;100.00
48624;BME280;34422;45.802;16.114;2023-04-01T18:57:10;99225.31;;;12.45;100.00
48624;BME280;34422;45.802;16.114;2023-04-01T18:59:41;99230.53;;;12.30;100.00
48624;BME280;34422;45.802;16.114;2023-04-01T19:13:01;99246.91;;;11.85;100.00
48624;BME280;34422;45.802;16.114;2023-04-01T19:18:34;99257.41;;;11.82;100.00
48624;BME280;34422;45.802;16.114;2023-04-01T19:21:18;99270.31;;;11.46;100.00
48624;BME280;34422;45.802;16.114;2023-04-01T19:24:06;99269.53;;;11.34;100.00
48624;BME280;34422;45.802;16.114;2023-04-01T19:29:54;99278.50;;;11.51;100.00
48624;BME280;34422;45.802;16.114;2023-04-01T19:32:41;99274.56;;;11.42;100.00
48624;BME280;34422;45.802;16.114;2023-04-01T19:38:24;99279.97;;;11.42;100.00
48624;BME280;34422;45.802;16.114;2023-04-01T19:41:21;99278.34;;;11.41;100.00
48624;BME280;34422;45.802;16.114;2023-04-01T19:47:01;99278.47;;;11.34;100.00
48624;BME280;34422;45.802;16.114;2023-04-01T19:52:30;99276.97;;;11.27;100.00
48624;BME280;34422;45.802;16.114;2023-04-01T19:57:46;99278.75;;;11.21;100.00
48624;BME280;34422;45.802;16.114;2023-04-01T20:03:04;99283.22;;;11.27;100.00
48624;BME280;34422;45.802;16.114;2023-04-01T20:09:11;99288.16;;;11.30;100.00
48624;BME280;34422;45.802;16.114;2023-04-01T20:11:44;99282.38;;;11.27;100.00
48624;BME280;34422;45.802;16.114;2023-04-01T20:14:36;99276.31;;;11.20;100.00
48624;BME280;34422;45.802;16.114;2023-04-01T20:24:52;99270.06;;;10.79;100.00
48624;BME280;34422;45.802;16.114;2023-04-01T20:27:23;99279.31;;;10.83;100.00
48624;BME280;34422;45.802;16.114;2023-04-01T20:38:12;99284.06;;;10.64;100.00
48624;BME280;34422;45.802;16.114;2023-04-01T20:40:59;99286.66;;;10.59;100.00
48624;BME280;34422;45.802;16.114;2023-04-01T20:51:54;99285.25;;;10.22;100.00
48624;BME280;34422;45.802;16.114;2023-04-01T21:00:27;99275.09;;;10.06;100.00
48624;BME280;34422;45.802;16.114;2023-04-01T21:03:12;99284.34;;;9.98;100.00
48624;BME280;34422;45.802;16.114;2023-04-01T21:22:23;99315.53;;;9.71;100.00
48624;BME280;34422;45.802;16.114;2023-04-01T21:31:00;99325.09;;;9.85;100.00
48624;BME280;34422;45.802;16.114;2023-04-01T21:45:06;99331.19;;;9.50;100.00
48624;BME280;34422;45.802;16.114;2023-04-01T21:53:35;99324.31;;;9.36;100.00
48624;BME280;34422;45.802;16.114;2023-04-01T22:02:02;99313.97;;;9.33;100.00
48624;BME280;34422;45.802;16.114;2023-04-01T22:04:45;99311.16;;;9.28;100.00
48624;BME280;34422;45.802;16.114;2023-04-01T22:07:18;99324.22;;;9.13;100.00
48624;BME280;34422;45.802;16.114;2023-04-01T22:12:48;99319.88;;;8.94;100.00
48624;BME280;34422;45.802;16.114;2023-04-01T22:18:22;99321.81;;;8.86;100.00
48624;BME280;34422;45.802;16.114;2023-04-01T22:23:46;99312.22;;;8.72;100.00
48624;BME280;34422;45.802;16.114;2023-04-01T22:26:29;99325.09;;;8.70;100.00
48624;BME280;34422;45.802;16.114;2023-04-01T22:29:31;99330.94;;;8.67;100.00
48624;BME280;34422;45.802;16.114;2023-04-01T22:32:16;99335.88;;;8.70;100.00
48624;BME280;34422;45.802;16.114;2023-04-01T22:40:12;99339.50;;;8.82;100.00
48624;BME280;34422;45.802;16.114;2023-04-01T22:42:48;99339.94;;;8.79;100.00
48624;BME280;34422;45.802;16.114;2023-04-01T22:45:43;99350.13;;;8.59;100.00
48624;BME280;34422;45.802;16.114;2023-04-01T22:48:21;99366.50;;;8.58;100.00
48624;BME280;34422;45.802;16.114;2023-04-01T22:54:07;99358.78;;;8.61;100.00
48624;BME280;34422;45.802;16.114;2023-04-01T22:56:49;99348.78;;;8.68;100.00
48624;BME280;34422;45.802;16.114;2023-04-01T22:59:31;99347.28;;;8.72;100.00